Manila, Philippines

9:08 AM PHT on December 28, 2014 (GMT +0800)
Taft Avenue, Manila | Change Station
CLOSE
Current Station
Personal Weather Station
Location: 2401 Taft Avenue, Manila
Elevation: 39 ft
Nearby Weather Stations

Elev 39 ft 14.57 °N, 120.99 °E | Updated 3 minutes ago

Scattered Clouds
Scattered Clouds
82.9 °F
Feels Like 89 °F
N
0.0
Wind Variable Wind from North
Gusts 0.0 mph

Today
High -- | Low -- °F
--% Chance of Precip.
Yesterday
High -- | Low -- °F
Precip. -- in
6:19 AM 5:35 PM
Waxing Crescent, 42% visible
Pressure 29.92 in
Visibility 6.2 miles
Clouds Few 2500 ft
Scattered Clouds 30000 ft
Heat Index 89 °F
Dew Point 73 °F
Humidity 72%
Rainfall 0.00 in
Snow Depth Not available.
UV 6.6 out of 12
Pollen Not available.
Air Quality Not available.
Flu Activity Not available.
METAR RPLL 280100Z VRB02KT 9999 FEW025 SCT300 28/20 Q1013 NOSIG RMK A2991

More Conditions Fewer Conditions

Pressure 29.92 in
Visibility 6.2 miles
Clouds Few 2500 ft
Scattered Clouds 30000 ft
Heat Index 89 °F
Dew Point 73 °F
Humidity 72%
Rainfall 0.00 in
Snow Depth Not available.
UV 6.6 out of 12
Pollen Not available.
Air Quality Not available.
Flu Activity Not available.
METAR RPLL 280100Z VRB02KT 9999 FEW025 SCT300 28/20 Q1013 NOSIG RMK A2991

More Conditions Fewer Conditions

10-Day Weather Forecast

Almanac

Astronomy

Dec. 28, 2014 Rise Set
Actual Time
Civil Twilight
Nautical Twilight
Astronomical Twilight
Moon
Length of Visible Light
Length of Day
Tomorrow will be .
, % of the Moon is Illuminated

Today's Extremes

Country Highs Country Lows

Community

WunderPhotos

Upload Photos

1,781,119 photos uploaded!

WunderBlogs® & News

Nearby

Air Quality

  Air Quality AQ Index Pollutant
Not available.

Snow Depth

Station Depth Elevation

Earthquake Activity

City Distance Mag. Time & Date
Minimum magnitude displayed is 2.5.

Coastal Water Temperatures

Place Temperature

Nearby Weather Stations